Pagina principale
METAR-TAF:

METAR-TAF

Aeroporti :

Ushuaia, Argentina

Aeroporto Internazionale di Ushuaia

latitudine: 54-48S, longitudine: 068-19W, altezza: 16 m

Osservazione

Il bollettino è stato emesso 1 ora e 11 minuti fa, alle 05:00 UTC
Vento calmo
Temperature 10°C
Umidità 76%
Pressione 1011 hPa
Visibilità 10 km o più
Poco nuvoloso ad un'altezza di 4000 ft
Nubi sparse ad un'altezza di 10000 ft

METAR: SAWH 230500Z 00000KT 9999 FEW040 SCT100 10/06 Q1011

Ora: 03:11 (06:11 UTC)

Previsione

Il bollettino è stato emesso 1 ora e 11 minuti fa, alle 05:00 UTC
Previsione valida dal 23 alle 06 UTC al 24 alle 06 UTC
Vento 10 kt da ovest/nord-ovest
Visibilità 10 km o più
Nubi sparse ad un'altezza di 4000 ft
Evoluzione graduale
dal 23 alle 07 UTC al 23 alle 09 UTC
Vento 18 kt da nord-ovest

TAF: SAWH 230500Z 2306/2406 29010KT 9999 SCT040 TX17/2319Z TN07/2310Z BECMG 2307/2309 32018KT

Osservazioni e previsioni meteorologiche di più di 4000 aeroporti (messaggi METAR e TAF).

Le stazioni disponibili sono rappresentate dai dischi gialli e rossi sulla carta.

Puntare il mouse per vedere il nome della stazione.

Clicca sopra per visualizzare le osservazioni e previsioni meteorologiche.

Per cambiare la mappa : fare clic sui pulsanti verdi con una croce nera per ingrandire, il pulsante verde con un trattino per diminuire, o sulla freccia verde per le mappe adiacenti.


METAR-TAF: